Time;durP1;ratioP1;P1;durP2;ratioP2;P2;SDS_P1;SDS_P2;PMS_P1;PMS_P2;Temp;Humidity;BMP_temperature;BMP_pressure;BME280_temperature;BME280_humidity;BME280_pressure;Samples;Min_cycle;Max_cycle;Signal;HPM_P1;HPM_P2
2023/09/07 00:01:08;;;;;;;3.45;2.28;;;21.80;99.90;;;;;;5045366;28;20387;-34
2023/09/07 00:03:34;;;;;;;5.18;2.10;;;21.80;99.90;;;;;;5044393;28;20044;-35
2023/09/07 00:05:59;;;;;;;2.90;1.90;;;21.80;99.90;;;;;;5044967;28;20500;-35
2023/09/07 00:08:25;;;;;;;3.85;2.25;;;21.80;99.90;;;;;;5042318;28;20031;-34
2023/09/07 00:10:51;;;;;;;3.70;1.90;;;21.70;99.90;;;;;;5043516;28;20114;-35
2023/09/07 00:13:17;;;;;;;4.90;2.10;;;21.70;99.90;;;;;;5046612;28;20090;-35
2023/09/07 00:15:43;;;;;;;4.57;2.20;;;21.70;99.90;;;;;;5050304;28;20049;-34
2023/09/07 00:18:09;;;;;;;6.85;2.28;;;21.70;99.90;;;;;;5047814;28;20060;-35
2023/09/07 00:20:35;;;;;;;3.28;1.88;;;21.70;99.90;;;;;;5051923;28;20490;-35
2023/09/07 00:23:03;;;;;;;4.10;1.85;;;21.70;99.90;;;;;;5033244;28;20055;-34
2023/09/07 00:25:28;;;;;;;3.85;2.00;;;21.70;99.90;;;;;;5045077;28;20075;-34
2023/09/07 00:27:54;;;;;;;3.00;1.92;;;21.60;99.90;;;;;;5043989;28;20483;-35
2023/09/07 00:30:20;;;;;;;5.47;1.73;;;21.60;99.90;;;;;;5049992;28;20040;-35
2023/09/07 00:32:45;;;;;;;4.35;2.10;;;21.50;99.90;;;;;;5049985;28;20120;-35
2023/09/07 00:35:11;;;;;;;3.05;1.70;;;21.40;99.90;;;;;;5052098;28;20048;-34
2023/09/07 00:37:38;;;;;;;3.00;2.13;;;21.40;99.90;;;;;;5045041;28;20470;-34
2023/09/07 00:40:08;;;;;;;4.28;2.25;;;21.40;99.90;;;;;;5050324;28;20154;-34
2023/09/07 00:42:34;;;;;;;2.63;1.95;;;21.40;99.90;;;;;;5047452;28;20045;-34
2023/09/07 00:45:00;;;;;;;3.50;2.28;;;21.40;99.90;;;;;;5044291;28;20040;-35
2023/09/07 00:47:25;;;;;;;5.22;2.65;;;21.40;99.90;;;;;;5054309;28;20052;-35
2023/09/07 00:49:51;;;;;;;3.40;2.30;;;21.30;99.90;;;;;;5042013;28;20414;-35
2023/09/07 00:52:18;;;;;;;4.10;1.88;;;21.30;99.90;;;;;;5046059;28;20037;-35
2023/09/07 00:54:44;;;;;;;2.80;1.98;;;21.30;99.90;;;;;;5044559;28;20049;-35
2023/09/07 00:57:10;;;;;;;3.40;1.90;;;21.30;99.90;;;;;;5043320;28;20067;-35
2023/09/07 00:59:36;;;;;;;3.05;2.08;;;21.30;99.90;;;;;;5042958;28;20040;-35
2023/09/07 01:02:05;;;;;;;5.10;2.00;;;21.30;99.90;;;;;;5042765;28;20056;-35
2023/09/07 01:04:30;;;;;;;2.83;2.00;;;21.20;99.90;;;;;;5040337;28;20044;-35
2023/09/07 01:07:02;;;;;;;3.35;2.03;;;21.20;99.90;;;;;;5043054;28;20041;-35
2023/09/07 01:09:32;;;;;;;3.50;2.30;;;21.10;99.90;;;;;;5040499;28;20404;-35
2023/09/07 01:11:57;;;;;;;8.23;2.13;;;21.10;99.90;;;;;;5043434;28;20087;-35
2023/09/07 01:14:23;;;;;;;3.05;2.05;;;21.10;99.90;;;;;;5023829;28;20041;-35
2023/09/07 01:16:50;;;;;;;3.83;2.30;;;21.10;99.90;;;;;;5044348;28;20044;-35
2023/09/07 01:19:16;;;;;;;5.20;2.38;;;21.00;99.90;;;;;;5041689;28;20084;-35
2023/09/07 01:21:42;;;;;;;5.93;2.30;;;21.10;99.90;;;;;;5042823;28;20033;-35
2023/09/07 01:24:10;;;;;;;4.25;2.03;;;21.00;99.90;;;;;;5048798;28;20056;-36
2023/09/07 01:26:40;;;;;;;4.55;2.80;;;21.00;99.90;;;;;;5045972;28;20099;-35
2023/09/07 01:29:06;;;;;;;4.30;1.98;;;21.00;99.90;;;;;;5048342;28;20060;-36
2023/09/07 01:31:37;;;;;;;5.38;2.30;;;20.90;99.90;;;;;;5045112;28;20047;-35
2023/09/07 01:34:02;;;;;;;3.83;2.55;;;20.90;99.90;;;;;;5048457;28;20040;-36
2023/09/07 01:36:28;;;;;;;3.00;2.10;;;20.80;99.90;;;;;;5048827;28;20098;-35
2023/09/07 01:38:54;;;;;;;4.07;2.17;;;20.80;99.90;;;;;;5053629;28;20489;-36
2023/09/07 01:41:20;;;;;;;4.07;2.47;;;20.80;99.90;;;;;;5045737;28;20039;-35
2023/09/07 01:43:45;;;;;;;4.05;2.38;;;20.70;99.90;;;;;;5049743;28;20052;-35
2023/09/07 01:46:11;;;;;;;3.35;1.95;;;20.70;99.90;;;;;;5037269;28;20041;-35
2023/09/07 01:48:37;;;;;;;4.78;2.42;;;20.70;99.90;;;;;;5052422;28;20398;-35
2023/09/07 01:51:02;;;;;;;3.33;2.30;;;20.60;99.90;;;;;;5051416;28;20040;-35
2023/09/07 01:53:28;;;;;;;3.78;2.35;;;20.60;99.90;;;;;;5047317;28;20052;-35
2023/09/07 01:55:55;;;;;;;4.03;1.83;;;20.60;99.90;;;;;;5046035;28;20131;-35
2023/09/07 01:58:21;;;;;;;4.03;2.28;;;20.50;99.90;;;;;;5048126;28;20064;-35
2023/09/07 02:00:47;;;;;;;3.75;2.30;;;20.50;99.90;;;;;;5046483;28;20044;-35
2023/09/07 02:03:13;;;;;;;5.78;2.15;;;20.50;99.90;;;;;;5046013;28;20033;-35
2023/09/07 02:05:39;;;;;;;3.00;2.03;;;20.50;99.90;;;;;;5047998;28;20045;-35
2023/09/07 02:08:05;;;;;;;4.82;2.53;;;20.40;99.90;;;;;;5046013;28;20033;-35
2023/09/07 02:10:30;;;;;;;3.17;2.35;;;20.40;99.90;;;;;;5046812;28;20398;-36
2023/09/07 02:12:57;;;;;;;4.93;2.10;;;20.40;99.90;;;;;;5043784;28;20094;-35
2023/09/07 02:15:23;;;;;;;3.63;2.38;;;20.40;99.90;;;;;;5047028;28;20048;-35
2023/09/07 02:17:49;;;;;;;4.13;2.53;;;20.30;99.90;;;;;;5044777;28;20758;-35
2023/09/07 02:20:15;;;;;;;6.55;2.20;;;20.30;99.90;;;;;;5047585;28;20052;-35
2023/09/07 02:22:40;;;;;;;6.32;2.10;;;20.30;99.90;;;;;;5044941;28;20064;-35
2023/09/07 02:25:07;;;;;;;4.65;2.40;;;20.20;99.90;;;;;;5045663;28;20120;-35
2023/09/07 02:27:34;;;;;;;3.95;2.97;;;20.20;99.90;;;;;;5046857;28;20041;-35
2023/09/07 02:29:59;;;;;;;3.58;2.40;;;20.20;99.90;;;;;;5048877;28;20041;-35
2023/09/07 02:32:25;;;;;;;4.10;2.28;;;20.20;99.90;;;;;;5045032;28;20033;-35
2023/09/07 02:34:51;;;;;;;5.32;2.20;;;20.10;99.90;;;;;;5053296;28;20393;-35
2023/09/07 02:37:16;;;;;;;3.97;2.30;;;20.10;99.90;;;;;;5044026;28;20475;-35
2023/09/07 02:39:42;;;;;;;3.90;2.30;;;20.10;99.90;;;;;;5045936;28;20367;-35
2023/09/07 02:42:08;;;;;;;9.15;2.83;;;20.00;99.90;;;;;;5045198;28;20033;-35
2023/09/07 02:44:34;;;;;;;6.38;2.28;;;20.00;99.90;;;;;;5047575;28;20098;-35
2023/09/07 02:46:59;;;;;;;4.47;2.15;;;20.00;99.90;;;;;;5050748;28;20036;-35
2023/09/07 02:49:25;;;;;;;3.30;2.20;;;20.00;99.90;;;;;;5009960;28;20029;-35
2023/09/07 02:51:51;;;;;;;3.75;2.45;;;20.00;99.90;;;;;;5048075;28;20033;-35
2023/09/07 02:54:16;;;;;;;6.07;3.22;;;19.90;99.90;;;;;;5044840;28;20037;-35
2023/09/07 02:56:42;;;;;;;3.95;2.30;;;19.90;99.90;;;;;;5043935;28;20037;-35
2023/09/07 02:59:08;;;;;;;4.75;2.50;;;19.90;99.90;;;;;;5040920;28;20033;-35
2023/09/07 03:01:34;;;;;;;3.78;2.40;;;19.90;99.90;;;;;;5041105;28;20045;-35
2023/09/07 03:04:00;;;;;;;4.55;2.13;;;19.90;99.90;;;;;;5052048;28;20037;-36
2023/09/07 03:06:25;;;;;;;3.95;2.58;;;19.90;99.90;;;;;;5045916;28;20064;-35
2023/09/07 03:08:52;;;;;;;3.97;2.30;;;19.80;99.90;;;;;;5046217;28;20398;-35
2023/09/07 03:11:18;;;;;;;5.43;2.90;;;19.80;99.90;;;;;;5048050;28;20488;-35
2023/09/07 03:13:44;;;;;;;4.03;1.85;;;19.80;99.90;;;;;;5047943;28;20037;-35
2023/09/07 03:16:10;;;;;;;3.78;1.83;;;19.70;99.90;;;;;;5050390;28;20476;-35
2023/09/07 03:18:36;;;;;;;2.72;1.95;;;19.70;99.90;;;;;;5041810;28;20416;-35
2023/09/07 03:21:02;;;;;;;4.25;2.00;;;19.70;99.90;;;;;;5046333;28;20040;-35
2023/09/07 03:23:30;;;;;;;4.05;2.28;;;19.60;99.90;;;;;;5045427;28;20032;-35
2023/09/07 03:25:56;;;;;;;3.28;2.20;;;19.60;99.90;;;;;;5045997;28;20037;-35
2023/09/07 03:28:22;;;;;;;4.97;2.22;;;19.50;99.90;;;;;;5043653;28;20037;-35
2023/09/07 03:30:48;;;;;;;5.57;2.95;;;19.40;99.90;;;;;;5044781;28;20041;-35
2023/09/07 03:33:13;;;;;;;3.42;2.50;;;19.40;99.90;;;;;;5042793;28;20073;-35
2023/09/07 03:35:40;;;;;;;3.92;2.50;;;19.40;99.90;;;;;;5047439;28;20041;-36
2023/09/07 03:38:06;;;;;;;4.05;2.30;;;19.40;99.90;;;;;;5053230;28;20036;-35
2023/09/07 03:40:32;;;;;;;5.25;2.10;;;19.40;99.90;;;;;;5047925;28;20037;-34
2023/09/07 03:42:57;;;;;;;4.75;2.63;;;19.30;99.90;;;;;;5043252;28;20437;-35
2023/09/07 03:45:23;;;;;;;5.18;2.40;;;19.30;99.90;;;;;;5044491;28;20442;-37
2023/09/07 03:47:49;;;;;;;5.32;2.63;;;19.30;99.90;;;;;;5047314;28;20124;-34
2023/09/07 03:50:15;;;;;;;5.97;2.53;;;19.30;99.90;;;;;;5048243;28;20045;-35
2023/09/07 03:52:40;;;;;;;6.32;2.85;;;19.30;99.90;;;;;;5046547;28;20444;-35
2023/09/07 03:55:07;;;;;;;8.35;2.55;;;19.30;99.90;;;;;;5049220;28;20732;-35
2023/09/07 03:57:32;;;;;;;5.65;2.70;;;19.30;99.90;;;;;;5049169;28;20041;-35
2023/09/07 03:59:58;;;;;;;5.10;2.95;;;19.30;99.90;;;;;;5049942;28;20041;-35
2023/09/07 04:02:24;;;;;;;6.53;2.83;;;19.20;99.90;;;;;;5050463;28;20068;-35
2023/09/07 04:04:51;;;;;;;6.60;3.10;;;19.20;99.90;;;;;;5046115;28;20549;-35
2023/09/07 04:07:17;;;;;;;6.60;2.78;;;19.20;99.90;;;;;;5053731;28;20044;-35
2023/09/07 04:09:44;;;;;;;4.80;3.10;;;19.20;99.90;;;;;;5043953;28;20683;-34
2023/09/07 04:12:09;;;;;;;6.00;2.80;;;19.20;99.90;;;;;;5049265;28;20120;-35
2023/09/07 04:14:35;;;;;;;6.18;2.67;;;19.10;99.90;;;;;;5045636;28;20119;-35
2023/09/07 04:17:01;;;;;;;3.85;2.97;;;19.10;99.90;;;;;;5047273;28;20037;-35
2023/09/07 04:19:27;;;;;;;4.35;2.50;;;19.10;99.90;;;;;;5049824;28;20108;-35
2023/09/07 04:21:52;;;;;;;4.78;2.50;;;19.10;99.90;;;;;;5052694;28;20045;-35
2023/09/07 04:24:18;;;;;;;5.32;2.25;;;19.00;99.90;;;;;;5051629;28;20461;-35
2023/09/07 04:26:44;;;;;;;4.07;2.80;;;19.00;99.90;;;;;;5046458;28;20033;-35
2023/09/07 04:29:11;;;;;;;5.40;3.00;;;19.00;99.90;;;;;;5051161;28;20045;-35
2023/09/07 04:31:37;;;;;;;6.80;2.58;;;19.00;99.90;;;;;;5048533;28;20114;-35
2023/09/07 04:34:03;;;;;;;3.97;2.92;;;18.90;99.90;;;;;;5047199;28;20044;-35
2023/09/07 04:36:28;;;;;;;8.68;3.10;;;18.90;99.90;;;;;;5049909;28;20037;-35
2023/09/07 04:38:54;;;;;;;5.30;3.05;;;18.80;99.90;;;;;;5047403;28;20041;-35
2023/09/07 04:41:20;;;;;;;4.10;3.10;;;18.80;99.90;;;;;;5049692;28;20084;-35
2023/09/07 04:43:45;;;;;;;4.88;3.00;;;18.80;99.90;;;;;;5044751;28;20120;-34
2023/09/07 04:46:12;;;;;;;5.93;3.20;;;18.80;99.90;;;;;;5051926;28;20071;-35
2023/09/07 04:48:40;;;;;;;4.40;2.90;;;18.80;99.90;;;;;;5047495;28;20041;-35
2023/09/07 04:51:07;;;;;;;6.15;3.35;;;18.70;99.90;;;;;;5048672;28;20493;-35
2023/09/07 04:53:35;;;;;;;5.32;3.08;;;18.70;99.90;;;;;;5050879;28;20098;-35
2023/09/07 04:56:05;;;;;;;6.47;3.28;;;18.70;99.90;;;;;;5046819;28;20072;-35
2023/09/07 04:58:32;;;;;;;4.97;3.00;;;18.60;99.90;;;;;;5033671;28;20127;-35
2023/09/07 05:01:08;;;;;;;4.60;3.20;;;18.60;99.90;;;;;;5046430;28;20053;-35
2023/09/07 05:03:35;;;;;;;5.75;3.28;;;18.60;99.90;;;;;;5045750;28;20532;-35
2023/09/07 05:06:02;;;;;;;4.03;3.13;;;18.60;99.90;;;;;;5045119;28;20093;-35
2023/09/07 05:08:28;;;;;;;5.88;2.97;;;18.60;99.90;;;;;;5048210;28;20052;-35
2023/09/07 05:10:58;;;;;;;5.28;3.42;;;18.60;99.90;;;;;;5052536;28;21248;-36
2023/09/07 05:13:25;;;;;;;3.88;2.78;;;18.60;99.90;;;;;;5044836;28;20052;-35
2023/09/07 05:15:51;;;;;;;6.70;3.25;;;18.60;99.90;;;;;;5044598;28;20044;-35
2023/09/07 05:18:18;;;;;;;4.47;2.97;;;18.60;99.90;;;;;;5045521;28;20051;-35
2023/09/07 05:20:53;;;;;;;5.88;3.38;;;18.60;99.90;;;;;;5048571;28;20210;-35
2023/09/07 05:23:22;;;;;;;5.45;3.50;;;18.60;99.90;;;;;;5039171;28;20041;-35
2023/09/07 05:25:52;;;;;;;4.97;3.28;;;18.60;99.90;;;;;;5054879;28;20040;-37
2023/09/07 05:28:18;;;;;;;5.85;3.00;;;18.60;99.90;;;;;;5045575;28;20555;-35
2023/09/07 05:30:44;;;;;;;4.75;3.13;;;18.60;99.90;;;;;;5039042;28;20045;-34
2023/09/07 05:33:11;;;;;;;4.78;3.20;;;18.60;99.90;;;;;;5043875;28;20045;-35
2023/09/07 05:35:37;;;;;;;6.35;3.28;;;18.60;99.90;;;;;;5042754;28;20116;-35
2023/09/07 05:38:06;;;;;;;15.13;3.75;;;18.60;99.90;;;;;;5043732;28;20472;-35
2023/09/07 05:40:36;;;;;;;2.53;1.70;;;18.60;99.90;;;;;;5050900;28;20113;-35
2023/09/07 05:43:03;;;;;;;4.80;3.17;;;18.70;99.90;;;;;;5047359;28;20037;-35
2023/09/07 05:45:31;;;;;;;5.25;2.95;;;19.10;99.90;;;;;;5046231;28;20037;-35
2023/09/07 05:47:56;;;;;;;5.22;2.63;;;19.30;99.90;;;;;;5044342;28;20045;-35
2023/09/07 05:50:22;;;;;;;6.00;3.10;;;19.50;99.90;;;;;;5041346;28;20041;-35
2023/09/07 05:52:47;;;;;;;5.57;3.20;;;19.60;99.90;;;;;;5047834;28;20094;-35
2023/09/07 05:55:13;;;;;;;4.18;2.47;;;19.60;99.90;;;;;;5051019;28;20453;-35
2023/09/07 05:57:39;;;;;;;5.90;3.10;;;19.70;99.90;;;;;;5052080;28;20090;-35
2023/09/07 06:00:05;;;;;;;5.20;2.95;;;19.80;99.90;;;;;;5045679;28;21223;-34
2023/09/07 06:02:31;;;;;;;6.25;3.03;;;19.90;99.90;;;;;;5045318;28;20094;-35
2023/09/07 06:04:56;;;;;;;7.47;3.25;;;20.00;99.90;;;;;;5056877;28;20044;-35
2023/09/07 06:07:22;;;;;;;7.03;3.40;;;20.00;99.90;;;;;;5026008;28;20039;-35
2023/09/07 06:09:47;;;;;;;5.35;3.30;;;20.00;99.90;;;;;;5041140;28;20045;-35
2023/09/07 06:12:13;;;;;;;5.95;3.22;;;20.00;99.90;;;;;;5042191;28;20037;-35
2023/09/07 06:14:39;;;;;;;5.85;3.30;;;20.00;99.90;;;;;;5040875;28;20045;-35
2023/09/07 06:17:04;;;;;;;4.80;3.03;;;20.00;99.90;;;;;;5042872;28;20083;-35
2023/09/07 06:19:31;;;;;;;5.50;2.67;;;20.00;99.90;;;;;;5046875;28;20091;-35
2023/09/07 06:21:57;;;;;;;3.92;2.58;;;20.00;99.90;;;;;;5051182;28;20465;-35
2023/09/07 06:24:22;;;;;;;5.47;2.33;;;20.10;99.90;;;;;;5048506;28;20036;-35
2023/09/07 06:26:48;;;;;;;5.97;2.92;;;20.20;99.90;;;;;;5047400;28;20041;-33
2023/09/07 06:29:13;;;;;;;4.97;2.70;;;20.20;99.90;;;;;;5049571;28;20449;-35
2023/09/07 06:31:39;;;;;;;7.53;3.35;;;20.30;99.90;;;;;;5044334;28;20087;-35
2023/09/07 06:34:05;;;;;;;5.13;3.17;;;20.30;99.90;;;;;;5032479;28;20044;-35
2023/09/07 06:36:31;;;;;;;5.72;3.10;;;20.30;99.90;;;;;;5051174;28;20040;-35
2023/09/07 06:38:58;;;;;;;5.10;3.10;;;20.40;99.90;;;;;;5045051;28;20041;-35
2023/09/07 06:41:24;;;;;;;4.20;2.30;;;20.40;99.90;;;;;;5041720;28;20565;-34
2023/09/07 06:43:49;;;;;;;4.32;2.67;;;20.40;99.90;;;;;;5044706;28;20048;-34
2023/09/07 06:46:15;;;;;;;6.97;3.58;;;20.40;99.90;;;;;;5040740;28;20664;-35
2023/09/07 06:48:42;;;;;;;6.32;3.00;;;20.40;99.90;;;;;;5048757;28;20052;-35
2023/09/07 06:51:09;;;;;;;5.18;2.78;;;20.30;99.90;;;;;;5049529;28;20034;-37
2023/09/07 06:53:34;;;;;;;4.97;3.55;;;20.40;99.90;;;;;;5050671;28;20053;-35
2023/09/07 06:56:02;;;;;;;4.35;3.13;;;20.40;99.90;;;;;;5049502;28;20044;-35
2023/09/07 06:58:28;;;;;;;5.63;3.42;;;20.50;99.90;;;;;;5046742;28;20040;-35
2023/09/07 07:01:01;;;;;;;5.65;2.40;;;20.50;99.90;;;;;;5049521;28;20028;-35
2023/09/07 07:03:29;;;;;;;6.60;3.28;;;20.50;99.90;;;;;;5033225;28;20052;-34
2023/09/07 07:05:55;;;;;;;3.10;2.10;;;20.60;99.90;;;;;;5044720;28;20154;-35
2023/09/07 07:08:21;;;;;;;6.18;2.70;;;20.70;99.90;;;;;;5042237;28;20486;-35
2023/09/07 07:10:47;;;;;;;6.25;2.83;;;20.80;99.90;;;;;;5047944;28;20170;-35
2023/09/07 07:13:13;;;;;;;7.80;4.15;;;20.80;99.90;;;;;;5047030;28;20068;-35
2023/09/07 07:15:38;;;;;;;5.15;3.20;;;20.90;99.90;;;;;;5047951;28;20037;-34
2023/09/07 07:18:08;;;;;;;5.03;2.55;;;20.90;99.90;;;;;;5049223;28;20429;-35
2023/09/07 07:20:43;;;;;;;5.40;3.53;;;21.00;99.90;;;;;;5048919;28;20044;-35
2023/09/07 07:23:09;;;;;;;4.60;3.20;;;21.00;99.90;;;;;;5050015;28;20555;-35
2023/09/07 07:25:35;;;;;;;6.38;3.38;;;21.00;99.90;;;;;;5048132;28;20037;-35
2023/09/07 07:28:05;;;;;;;4.53;2.97;;;21.00;99.90;;;;;;5050491;28;20481;-35
2023/09/07 07:30:34;;;;;;;5.57;2.75;;;21.00;99.90;;;;;;5048960;28;20040;-35
2023/09/07 07:33:00;;;;;;;4.05;2.13;;;21.10;99.90;;;;;;5041475;28;20124;-34
2023/09/07 07:35:26;;;;;;;7.47;3.42;;;21.10;99.90;;;;;;5048546;28;20033;-35
2023/09/07 07:37:52;;;;;;;3.80;2.78;;;21.20;99.90;;;;;;5047147;28;20036;-35
2023/09/07 07:40:18;;;;;;;4.85;2.83;;;21.30;99.90;;;;;;5049567;28;20072;-35
2023/09/07 07:42:46;;;;;;;5.55;2.55;;;21.30;99.90;;;;;;5049305;28;20148;-35
2023/09/07 07:45:12;;;;;;;6.05;3.50;;;21.30;99.90;;;;;;5045734;28;20040;-35
2023/09/07 07:47:38;;;;;;;4.57;3.22;;;21.40;99.90;;;;;;5047916;28;20037;-43
2023/09/07 07:50:05;;;;;;;5.53;3.38;;;21.40;99.90;;;;;;5047441;28;20391;-35
2023/09/07 07:52:30;;;;;;;6.65;4.15;;;21.50;99.90;;;;;;5048894;28;20051;-34
2023/09/07 07:54:56;;;;;;;4.35;2.63;;;21.50;99.90;;;;;;5047865;28;20037;-34
2023/09/07 07:57:22;;;;;;;6.22;2.67;;;21.60;99.90;;;;;;5040718;28;20495;-33
2023/09/07 07:59:47;;;;;;;7.05;2.92;;;21.60;99.90;;;;;;5041329;28;20040;-34
2023/09/07 08:02:13;;;;;;;6.13;3.15;;;21.70;99.90;;;;;;5047052;28;20145;-34
2023/09/07 08:04:39;;;;;;;4.97;3.08;;;21.80;99.90;;;;;;5044054;28;20029;-34
2023/09/07 08:07:06;;;;;;;4.78;3.00;;;21.90;99.90;;;;;;5049396;28;20390;-34
2023/09/07 08:09:32;;;;;;;4.43;2.83;;;22.00;99.90;;;;;;5048557;28;20581;-34
2023/09/07 08:11:58;;;;;;;7.35;2.90;;;22.00;99.90;;;;;;5043391;28;20048;-34
2023/09/07 08:14:25;;;;;;;5.93;3.22;;;22.20;99.90;;;;;;5047866;28;20094;-34
2023/09/07 08:16:52;;;;;;;4.00;2.50;;;22.20;99.90;;;;;;5030957;28;20048;-34
2023/09/07 08:19:19;;;;;;;3.45;2.28;;;22.20;99.90;;;;;;5045529;28;20063;-35
2023/09/07 08:21:46;;;;;;;5.10;3.33;;;22.40;99.90;;;;;;5044341;28;20080;-39
2023/09/07 08:24:12;;;;;;;7.63;3.40;;;22.50;99.90;;;;;;5047780;28;20037;-34
2023/09/07 08:26:38;;;;;;;6.20;3.45;;;22.50;99.90;;;;;;5047923;28;20037;-34
2023/09/07 08:29:08;;;;;;;5.85;3.08;;;22.60;99.90;;;;;;5045437;28;20040;-34
2023/09/07 08:31:34;;;;;;;6.25;3.45;;;22.60;99.90;;;;;;5047295;28;20072;-34
2023/09/07 08:34:05;;;;;;;4.10;3.03;;;22.70;99.90;;;;;;5050852;28;20037;-35
2023/09/07 08:36:33;;;;;;;5.80;3.30;;;22.80;99.90;;;;;;5052333;28;20044;-34
2023/09/07 08:39:05;;;;;;;4.20;3.00;;;22.90;99.90;;;;;;5047887;28;20041;-34
2023/09/07 08:41:44;;;;;;;4.00;2.97;;;23.00;99.90;;;;;;5042492;28;20049;-34
2023/09/07 08:44:21;;;;;;;4.57;2.92;;;23.10;99.90;;;;;;5049863;28;20072;-34
2023/09/07 08:46:49;;;;;;;7.20;3.10;;;23.20;99.90;;;;;;5047291;28;20040;-34
2023/09/07 08:49:19;;;;;;;3.88;2.30;;;23.20;99.90;;;;;;5048390;28;20445;-34
2023/09/07 08:51:45;;;;;;;4.47;2.97;;;23.30;99.90;;;;;;5049532;28;20048;-34
2023/09/07 08:54:12;;;;;;;5.85;3.55;;;23.40;99.90;;;;;;5050854;28;20040;-34
2023/09/07 08:56:37;;;;;;;6.35;3.47;;;23.50;99.90;;;;;;5048683;28;20098;-35
2023/09/07 08:59:04;;;;;;;4.90;2.28;;;23.50;99.90;;;;;;5051001;28;20494;-34
2023/09/07 09:01:31;;;;;;;6.15;3.05;;;23.60;99.90;;;;;;5050527;28;20128;-34
2023/09/07 09:04:00;;;;;;;7.05;3.80;;;23.70;99.90;;;;;;5052226;28;20532;-34
2023/09/07 09:06:26;;;;;;;5.50;3.38;;;23.70;99.90;;;;;;5031506;28;20040;-35
2023/09/07 09:08:56;;;;;;;6.00;2.90;;;23.80;99.90;;;;;;5047065;28;20044;-34
2023/09/07 09:11:23;;;;;;;5.00;3.55;;;23.80;99.90;;;;;;5047916;28;20383;-34
2023/09/07 09:13:52;;;;;;;5.30;3.47;;;24.00;99.90;;;;;;5049245;28;20033;-34
2023/09/07 09:16:18;;;;;;;7.03;3.10;;;24.00;99.90;;;;;;5043952;28;20505;-34
2023/09/07 09:18:52;;;;;;;6.93;3.47;;;24.10;99.90;;;;;;5045890;28;20056;-34
2023/09/07 09:21:21;;;;;;;4.28;3.03;;;24.20;99.90;;;;;;5047319;28;20037;-34
2023/09/07 09:23:52;;;;;;;8.55;3.55;;;24.20;99.90;;;;;;5046441;28;20323;-34
2023/09/07 09:26:18;;;;;;;4.47;2.53;;;24.40;99.90;;;;;;5044422;28;20502;-33
2023/09/07 09:28:47;;;;;;;5.13;3.45;;;24.40;99.90;;;;;;5047771;28;20175;-34
2023/09/07 09:31:14;;;;;;;5.70;2.92;;;24.50;99.90;;;;;;5047174;28;20052;-34
2023/09/07 09:33:41;;;;;;;5.60;3.90;;;24.60;99.90;;;;;;5048165;28;20394;-34
2023/09/07 09:36:07;;;;;;;7.07;3.75;;;24.60;99.90;;;;;;5050902;28;20045;-35
2023/09/07 09:38:34;;;;;;;5.55;3.78;;;24.70;99.90;;;;;;5052398;28;20120;-35
2023/09/07 09:41:00;;;;;;;3.70;3.08;;;24.80;99.90;;;;;;5051201;28;20052;-34
2023/09/07 09:43:26;;;;;;;5.88;3.10;;;24.80;99.90;;;;;;5050526;28;20029;-34
2023/09/07 09:45:53;;;;;;;8.77;3.20;;;25.00;99.90;;;;;;5048086;28;20045;-34
2023/09/07 09:48:22;;;;;;;7.50;3.13;;;25.10;99.90;;;;;;5050997;28;20037;-34
2023/09/07 09:50:48;;;;;;;5.00;3.10;;;25.20;99.90;;;;;;5051410;28;20106;-34
2023/09/07 09:53:20;;;;;;;7.32;3.20;;;25.30;99.90;;;;;;5051057;28;20058;-34
2023/09/07 09:55:47;;;;;;;6.78;3.08;;;25.30;99.90;;;;;;5050200;28;20032;-35
2023/09/07 09:58:13;;;;;;;5.55;3.53;;;25.40;99.90;;;;;;5050445;28;20052;-35
2023/09/07 10:00:42;;;;;;;4.53;3.00;;;25.60;99.90;;;;;;5048883;28;20040;-34
2023/09/07 10:03:12;;;;;;;5.63;3.10;;;25.60;99.90;;;;;;5049215;28;20041;-35
2023/09/07 10:05:38;;;;;;;4.10;3.00;;;25.80;99.90;;;;;;5050452;28;20045;-35
2023/09/07 10:08:09;;;;;;;4.82;3.15;;;25.80;99.90;;;;;;5048410;28;20041;-35
2023/09/07 10:10:36;;;;;;;6.22;3.03;;;25.90;99.90;;;;;;5050085;28;20449;-34
2023/09/07 10:13:02;;;;;;;5.95;3.47;;;26.00;99.90;;;;;;5046648;28;20092;-35
2023/09/07 10:15:29;;;;;;;3.92;2.95;;;26.10;99.90;;;;;;5047018;28;20492;-35
2023/09/07 10:18:10;;;;;;;5.80;3.08;;;26.20;99.90;;;;;;5043103;28;20152;-35
2023/09/07 10:20:54;;;;;;;5.40;2.63;;;26.30;99.90;;;;;;5048590;28;20451;-34
2023/09/07 10:23:19;;;;;;;4.25;2.97;;;26.30;99.90;;;;;;5047839;28;20037;-35
2023/09/07 10:25:52;;;;;;;5.85;3.28;;;26.30;99.90;;;;;;5048325;28;20040;-34
2023/09/07 10:28:23;;;;;;;4.55;3.10;;;26.40;99.90;;;;;;5052639;28;20029;-35
2023/09/07 10:31:03;;;;;;;4.90;3.00;;;26.50;99.90;;;;;;5048371;28;20041;-34
2023/09/07 10:33:30;;;;;;;6.30;3.05;;;26.60;99.90;;;;;;5047758;28;20040;-35
2023/09/07 10:35:56;;;;;;;4.95;3.10;;;26.70;99.90;;;;;;5049836;28;20049;-34
2023/09/07 10:38:23;;;;;;;9.23;3.55;;;26.70;99.90;;;;;;5032231;28;20032;-35
2023/09/07 10:40:54;;;;;;;4.18;2.90;;;26.80;99.90;;;;;;5050227;28;20129;-35
2023/09/07 10:43:20;;;;;;;6.50;3.53;;;26.90;99.90;;;;;;5049475;28;20505;-35
2023/09/07 10:45:46;;;;;;;6.32;3.88;;;27.00;99.90;;;;;;5047676;28;20113;-35
2023/09/07 10:48:12;;;;;;;4.00;3.28;;;27.00;99.90;;;;;;5050698;28;20517;-35
2023/09/07 10:50:45;;;;;;;4.75;3.05;;;27.00;99.90;;;;;;5044147;28;20165;-34
2023/09/07 10:53:14;;;;;;;6.93;3.50;;;27.00;99.90;;;;;;5043519;28;20036;-34
2023/09/07 10:55:40;;;;;;;4.45;3.22;;;27.10;99.90;;;;;;5044873;28;20617;-34
2023/09/07 10:58:07;;;;;;;4.93;3.63;;;27.20;99.90;;;;;;5049461;28;20063;-34
2023/09/07 11:00:33;;;;;;;4.03;3.13;;;27.20;99.90;;;;;;5024617;28;20045;-35
2023/09/07 11:02:58;;;;;;;3.97;2.97;;;27.40;99.90;;;;;;5047709;28;20052;-35
2023/09/07 11:05:25;;;;;;;7.97;2.80;;;27.40;99.90;;;;;;5049237;28;20029;-35
2023/09/07 11:07:50;;;;;;;4.65;2.97;;;27.50;99.90;;;;;;5048724;28;20466;-34
2023/09/07 11:10:16;;;;;;;4.65;2.90;;;27.50;99.90;;;;;;5050332;28;20119;-35
2023/09/07 11:12:42;;;;;;;5.43;2.90;;;27.60;99.90;;;;;;5043384;28;20025;-35
2023/09/07 11:15:10;;;;;;;7.95;2.67;;;27.60;99.90;;;;;;5045168;28;20049;-35
2023/09/07 11:17:42;;;;;;;2.75;2.10;;;27.70;99.90;;;;;;5022374;28;20091;-35
2023/09/07 11:20:08;;;;;;;3.88;2.83;;;27.80;99.90;;;;;;5049443;28;20498;-35
2023/09/07 11:22:35;;;;;;;4.65;2.67;;;27.90;99.90;;;;;;5046195;28;20044;-35
2023/09/07 11:25:01;;;;;;;4.63;2.92;;;28.00;99.90;;;;;;5046529;28;20111;-35
2023/09/07 11:27:31;;;;;;;3.22;2.40;;;28.10;99.90;;;;;;5048611;28;20037;-35
2023/09/07 11:29:56;;;;;;;5.45;2.50;;;28.20;99.90;;;;;;5049915;28;20087;-35
2023/09/07 11:32:23;;;;;;;2.83;2.08;;;28.20;99.90;;;;;;5046076;28;20037;-35
2023/09/07 11:34:53;;;;;;;7.82;2.35;;;28.30;99.90;;;;;;5040939;28;20507;-35
2023/09/07 11:37:24;;;;;;;3.78;2.70;;;28.40;99.90;;;;;;5047982;28;20399;-34
2023/09/07 11:39:50;;;;;;;3.63;2.63;;;28.50;99.90;;;;;;5030012;28;20447;-35
2023/09/07 11:42:15;;;;;;;3.35;2.30;;;28.60;99.90;;;;;;5048932;28;20079;-35
2023/09/07 11:44:41;;;;;;;3.08;2.17;;;28.70;99.90;;;;;;5046003;28;20494;-34
2023/09/07 11:47:07;;;;;;;4.00;2.00;;;28.80;99.90;;;;;;5046498;28;20033;-35
2023/09/07 11:49:33;;;;;;;3.70;2.05;;;28.90;99.90;;;;;;5030645;28;20108;-35
2023/09/07 11:51:59;;;;;;;3.20;2.35;;;29.10;99.90;;;;;;5050431;28;20040;-36
2023/09/07 11:54:24;;;;;;;5.60;2.17;;;29.20;99.90;;;;;;5048543;28;20417;-35
2023/09/07 11:56:50;;;;;;;3.00;2.00;;;29.30;99.90;;;;;;5049991;28;20037;-35
2023/09/07 11:59:17;;;;;;;3.85;2.45;;;29.30;99.90;;;;;;5049790;28;20112;-35
2023/09/07 12:01:43;;;;;;;4.93;2.03;;;29.40;99.90;;;;;;5045101;28;20091;-35
2023/09/07 12:04:09;;;;;;;3.33;2.40;;;29.50;99.90;;;;;;5046765;28;20045;-35
2023/09/07 12:06:35;;;;;;;4.47;2.00;;;29.60;99.90;;;;;;5044380;28;20037;-35
2023/09/07 12:09:09;;;;;;;4.45;3.15;;;29.70;99.90;;;;;;5048547;28;20037;-35
2023/09/07 12:11:35;;;;;;;3.65;2.67;;;29.80;99.90;;;;;;5052623;28;20037;-34
2023/09/07 12:14:01;;;;;;;7.53;2.72;;;29.80;99.90;;;;;;5050714;28;20037;-35
2023/09/07 12:16:28;;;;;;;3.22;2.20;;;29.90;99.90;;;;;;5048519;28;20505;-34
2023/09/07 12:18:54;;;;;;;4.65;2.70;;;30.00;99.90;;;;;;5053054;28;20056;-35
2023/09/07 12:21:20;;;;;;;3.28;2.20;;;30.20;99.90;;;;;;5048648;28;20533;-34
2023/09/07 12:23:46;;;;;;;5.60;2.20;;;30.30;99.90;;;;;;5051588;28;20041;-35
2023/09/07 12:26:16;;;;;;;4.63;2.13;;;30.30;99.90;;;;;;5045764;28;20037;-35
2023/09/07 12:28:42;;;;;;;3.92;2.15;;;30.40;99.90;;;;;;5042095;28;20393;-35
2023/09/07 12:31:08;;;;;;;4.28;2.50;;;30.50;99.90;;;;;;5051473;28;20121;-34
2023/09/07 12:33:33;;;;;;;4.18;2.50;;;30.60;99.90;;;;;;5034299;28;20037;-34
2023/09/07 12:35:59;;;;;;;3.75;2.03;;;30.70;99.90;;;;;;5050998;28;20122;-34
2023/09/07 12:38:28;;;;;;;6.00;2.45;;;30.90;99.90;;;;;;5052382;28;20133;-35
2023/09/07 12:40:54;;;;;;;4.00;2.17;;;31.00;99.90;;;;;;5050166;28;20521;-35
2023/09/07 12:43:20;;;;;;;6.22;2.17;;;31.20;99.90;;;;;;5044981;28;20037;-32
2023/09/07 12:45:46;;;;;;;3.28;2.03;;;31.40;99.90;;;;;;5030363;28;20048;-35